Terminal Aerodrome Forecast
Issued by NWS Wichita, KS

Home | Current Version | Previous Version | Graphics & Text | Print | Product List | Glossary On
Versions: 1 2 3 4 5 6 7 8 9 10 11 12 13 14 15 16 17 18
000
FTUS43 KICT 310520
TAFICT
TAF
KICT 310520Z 3106/0106 03010KT P6SM BKN020
     FM310900 VRB05KT 5SM BR SCT007 BKN020
     FM311600 05007KT P6SM SCT020 BKN035
     FM312200 10007KT P6SM SCT035
     FM010300 12006KT P6SM BKN035=

USA.gov is the U.S. government's official web portal to all federal, state and local government web resources and services.